Time;durP1;ratioP1;P1;durP2;ratioP2;P2;SDS_P1;SDS_P2;PMS_P1;PMS_P2;Temp;Humidity;BMP_temperature;BMP_pressure;BME280_temperature;BME280_humidity;BME280_pressure;Samples;Min_cycle;Max_cycle;Signal;HPM_P1;HPM_P2
2024/01/11 00:01:10;;;;;;;24.30;10.13;;;;;;;-5.08;100.00;99975.47;4485720;31;20084;-73
2024/01/11 00:03:38;;;;;;;26.05;10.52;;;;;;;-5.13;100.00;99980.59;4485673;31;20496;-73
2024/01/11 00:06:05;;;;;;;27.02;10.93;;;;;;;-5.09;100.00;99974.59;4485279;31;20472;-73
2024/01/11 00:08:33;;;;;;;24.65;10.23;;;;;;;-5.14;100.00;99971.22;4485746;31;20132;-73
2024/01/11 00:11:03;;;;;;;24.83;9.52;;;;;;;-5.10;100.00;99979.72;4485359;31;20135;-73
2024/01/11 00:13:30;;;;;;;28.05;10.05;;;;;;;-5.12;100.00;99976.34;4485635;31;20108;-73
2024/01/11 00:15:57;;;;;;;24.23;9.52;;;;;;;-5.09;100.00;99974.59;4485412;31;20135;-73
2024/01/11 00:18:24;;;;;;;30.55;10.80;;;;;;;-5.06;100.00;99977.13;4491956;31;20197;-73
2024/01/11 00:20:52;;;;;;;26.15;10.88;;;;;;;-5.08;100.00;99980.56;4501216;31;20132;-73
2024/01/11 00:23:19;;;;;;;26.25;10.65;;;;;;;-5.10;100.00;99979.72;4501222;31;20081;-73
2024/01/11 00:25:46;;;;;;;26.27;9.75;;;;;;;-5.14;100.00;99978.06;4501172;31;20097;-73
2024/01/11 00:28:13;;;;;;;33.38;12.07;;;;;;;-5.20;100.00;99968.72;4501357;31;20121;-73
2024/01/11 00:30:40;;;;;;;27.92;12.40;;;;;;;-5.21;100.00;99967.88;4490418;31;20550;-73
2024/01/11 00:33:08;;;;;;;28.08;9.65;;;;;;;-5.26;100.00;99963.63;4485527;31;20088;-73
2024/01/11 00:35:35;;;;;;;23.90;9.85;;;;;;;-5.26;100.00;99966.19;4485107;31;20141;-73
2024/01/11 00:38:03;;;;;;;26.33;9.07;;;;;;;-5.26;100.00;99961.94;4485272;31;20168;-73
2024/01/11 00:40:30;;;;;;;23.80;10.05;;;;;;;-5.26;100.00;99961.94;4485246;31;20133;-73
2024/01/11 00:42:57;;;;;;;25.90;8.93;;;;;;;-5.27;100.00;99957.69;4485342;31;20089;-73
2024/01/11 00:45:24;;;;;;;18.98;7.82;;;;;;;-5.26;100.00;99949.16;4485317;31;20096;-73
2024/01/11 00:47:51;;;;;;;25.67;9.25;;;;;;;-5.21;100.00;99951.69;4485224;31;20111;-73
2024/01/11 00:50:18;;;;;;;22.67;8.68;;;;;;;-5.19;100.00;99949.97;4485243;31;20081;-73
2024/01/11 00:52:45;;;;;;;16.62;7.10;;;;;;;-5.12;100.00;99946.50;4485522;31;20100;-73
2024/01/11 00:55:13;;;;;;;27.85;8.27;;;;;;;-5.11;100.00;99944.81;4485119;31;20824;-73
2024/01/11 00:57:39;;;;;;;18.67;7.95;;;;;;;-5.08;100.00;99939.69;4485051;32;20116;-73
2024/01/11 01:00:07;;;;;;;19.77;8.32;;;;;;;-5.07;100.00;99939.69;4485584;31;20097;-73
2024/01/11 01:02:34;;;;;;;18.62;7.25;;;;;;;-5.01;100.00;99942.19;4485227;31;20096;-73
2024/01/11 01:05:02;;;;;;;18.60;7.25;;;;;;;-4.97;100.00;99935.34;4485200;31;20159;-73
2024/01/11 01:07:29;;;;;;;15.95;7.78;;;;;;;-5.01;100.00;99934.53;4485275;31;20111;-73
2024/01/11 01:09:57;;;;;;;23.10;7.30;;;;;;;-5.01;100.00;99936.22;4485029;31;20092;-73
2024/01/11 01:12:26;;;;;;;24.48;8.35;;;;;;;-4.93;100.00;99931.06;4485237;31;20114;-73
2024/01/11 01:14:53;;;;;;;27.85;9.98;;;;;;;-4.87;100.00;99928.47;4484968;32;20545;-73
2024/01/11 01:17:22;;;;;;;17.95;8.25;;;;;;;-4.90;100.00;99919.13;4485371;31;20228;-73
2024/01/11 01:19:49;;;;;;;22.60;7.93;;;;;;;-4.95;100.00;99914.88;4485117;31;20664;-74
2024/01/11 01:22:16;;;;;;;19.92;8.10;;;;;;;-4.98;100.00;99918.34;4484878;32;20142;-73
2024/01/11 01:24:43;;;;;;;18.40;7.37;;;;;;;-4.97;100.00;99911.50;4485136;31;20121;-73
2024/01/11 01:27:10;;;;;;;20.90;8.40;;;;;;;-4.82;100.00;99909.66;4485226;31;20165;-73
2024/01/11 01:29:38;;;;;;;20.35;8.32;;;;;;;-4.78;100.00;99905.41;4488987;31;20104;-73
2024/01/11 01:32:05;;;;;;;17.40;8.00;;;;;;;-4.85;100.00;99917.34;4500704;31;20088;-73
2024/01/11 01:34:32;;;;;;;18.55;8.77;;;;;;;-4.84;100.00;99893.50;4500575;31;20175;-73
2024/01/11 01:36:59;;;;;;;19.15;7.70;;;;;;;-4.89;100.00;99902.06;4500763;31;20075;-73
2024/01/11 01:39:26;;;;;;;20.08;7.70;;;;;;;-4.95;100.00;99899.56;4500790;31;20100;-73
2024/01/11 01:41:53;;;;;;;19.58;7.78;;;;;;;-4.95;100.00;99894.44;4500475;31;20103;-73
2024/01/11 01:44:20;;;;;;;13.20;7.28;;;;;;;-4.92;100.00;99887.63;4500702;31;20144;-73
2024/01/11 01:46:49;;;;;;;14.57;7.40;;;;;;;-4.91;100.00;99883.34;4500466;31;20141;-73
2024/01/11 01:49:22;;;;;;;16.87;7.20;;;;;;;-5.00;100.00;99881.72;4500578;31;20434;-73
2024/01/11 01:51:52;;;;;;;16.27;7.82;;;;;;;-5.08;100.00;99880.94;4500515;31;20139;-73
2024/01/11 01:54:22;;;;;;;22.30;8.13;;;;;;;-5.14;100.00;99880.97;4499475;31;20092;-73
2024/01/11 01:56:50;;;;;;;21.40;8.38;;;;;;;-5.17;100.00;99882.69;4500390;31;20100;-73
2024/01/11 01:59:17;;;;;;;17.62;7.00;;;;;;;-5.13;100.00;99877.53;4500530;31;20160;-74
2024/01/11 02:01:44;;;;;;;21.60;8.00;;;;;;;-5.08;100.00;99870.72;4499510;31;20100;-73
2024/01/11 02:04:12;;;;;;;15.88;7.40;;;;;;;-5.05;100.00;99866.41;4500446;31;20084;-73
2024/01/11 02:06:40;;;;;;;18.25;7.60;;;;;;;-5.07;100.00;99862.16;4500454;31;20088;-73
2024/01/11 02:09:08;;;;;;;23.52;8.50;;;;;;;-5.10;100.00;99862.19;4499234;31;20123;-73
2024/01/11 02:11:35;;;;;;;17.73;7.62;;;;;;;-4.99;100.00;99863.81;4499071;31;20104;-73
2024/01/11 02:14:05;;;;;;;14.93;6.95;;;;;;;-5.02;100.00;99863.00;4499062;31;20166;-73
2024/01/11 02:16:32;;;;;;;20.48;8.63;;;;;;;-5.06;100.00;99854.50;4500276;31;20112;-73
2024/01/11 02:18:59;;;;;;;16.95;7.55;;;;;;;-5.10;100.00;99852.84;4489725;31;20108;-73
2024/01/11 02:21:27;;;;;;;19.25;7.40;;;;;;;-5.07;100.00;99849.37;4484476;32;20122;-73
2024/01/11 02:24:04;;;;;;;16.98;7.32;;;;;;;-5.08;100.00;99855.38;4483736;32;20554;-73
2024/01/11 02:26:32;;;;;;;16.25;7.47;;;;;;;-5.14;100.00;99842.66;4484532;31;20118;-73
2024/01/11 02:29:00;;;;;;;17.67;7.68;;;;;;;-5.11;100.00;99838.38;4484343;31;20115;-73
2024/01/11 02:31:28;;;;;;;19.87;7.35;;;;;;;-5.15;100.00;99830.72;4484511;31;20096;-73
2024/01/11 02:33:56;;;;;;;19.08;7.20;;;;;;;-5.13;100.00;99836.66;4484485;31;20089;-73
2024/01/11 02:36:25;;;;;;;15.10;6.25;;;;;;;-5.05;100.00;99819.59;4484643;31;20518;-73
2024/01/11 02:38:54;;;;;;;16.35;6.15;;;;;;;-5.13;100.00;99831.56;4484360;31;20475;-73
2024/01/11 02:41:22;;;;;;;15.65;7.32;;;;;;;-5.05;100.00;99828.09;4483200;32;20108;-73
2024/01/11 02:43:51;;;;;;;13.80;7.15;;;;;;;-5.08;100.00;99825.56;4483098;32;20092;-73
2024/01/11 02:46:21;;;;;;;17.65;6.78;;;;;;;-5.05;100.00;99824.69;4483363;32;20438;-73
2024/01/11 02:48:49;;;;;;;13.82;6.90;;;;;;;-5.02;100.00;99822.94;4484148;31;20096;-73
2024/01/11 02:51:16;;;;;;;13.00;6.62;;;;;;;-5.03;100.00;99812.75;4484519;32;20494;-73
2024/01/11 02:53:43;;;;;;;20.25;6.60;;;;;;;-5.01;100.00;99811.88;4484574;31;20247;-74
2024/01/11 02:56:11;;;;;;;21.52;6.85;;;;;;;-5.05;100.00;99802.53;4484440;31;20146;-73
2024/01/11 02:58:38;;;;;;;16.90;7.47;;;;;;;-5.05;100.00;99801.69;4484316;31;20135;-73
2024/01/11 03:01:06;;;;;;;18.60;7.40;;;;;;;-5.10;100.00;99803.44;4484225;31;20093;-73
2024/01/11 03:03:33;;;;;;;14.68;7.57;;;;;;;-5.26;100.00;99812.94;4484076;31;20084;-73
2024/01/11 03:06:03;;;;;;;19.37;6.80;;;;;;;-5.29;100.00;99806.16;4484081;31;20088;-73
2024/01/11 03:08:33;;;;;;;15.50;7.32;;;;;;;-5.32;100.00;99802.78;4483958;31;20077;-73
2024/01/11 03:11:01;;;;;;;21.20;7.82;;;;;;;-5.32;100.00;99801.06;4483977;31;20100;-73
2024/01/11 03:13:28;;;;;;;19.90;8.65;;;;;;;-5.27;100.00;99806.12;4483696;32;20100;-73
2024/01/11 03:15:57;;;;;;;19.25;7.35;;;;;;;-5.33;100.00;99798.53;4483876;31;20761;-73
2024/01/11 03:18:24;;;;;;;15.60;7.65;;;;;;;-5.29;100.00;99800.19;4490257;31;20604;-73
2024/01/11 03:20:52;;;;;;;20.42;7.72;;;;;;;-5.28;100.00;99792.53;4499522;31;20096;-73
2024/01/11 03:23:19;;;;;;;16.37;6.93;;;;;;;-5.33;100.00;99783.19;4499701;31;20117;-73
2024/01/11 03:25:46;;;;;;;25.10;8.13;;;;;;;-5.26;100.00;99788.25;4499414;31;20163;-73
2024/01/11 03:28:14;;;;;;;19.37;8.10;;;;;;;-5.30;100.00;99788.28;4499477;31;20100;-73
2024/01/11 03:30:41;;;;;;;21.92;8.32;;;;;;;-5.33;100.00;99776.38;4488660;31;20108;-73
2024/01/11 03:33:10;;;;;;;22.45;8.05;;;;;;;-5.29;100.00;99777.22;4483604;31;20450;-73
2024/01/11 03:35:40;;;;;;;19.08;8.00;;;;;;;-5.26;100.00;99770.38;4485098;31;20118;-73
2024/01/11 03:38:07;;;;;;;28.05;8.93;;;;;;;-5.34;100.00;99761.94;4485746;31;20111;-73
2024/01/11 03:40:35;;;;;;;19.62;8.02;;;;;;;-5.29;100.00;99769.56;4485646;31;20084;-73
2024/01/11 03:43:02;;;;;;;15.65;7.50;;;;;;;-5.33;100.00;99768.72;4485807;31;20084;-73
2024/01/11 03:45:31;;;;;;;16.17;8.40;;;;;;;-5.40;100.00;99755.16;4485938;31;20131;-73
2024/01/11 03:47:58;;;;;;;23.45;9.25;;;;;;;-5.35;100.00;99755.13;4485789;32;20501;-73
2024/01/11 03:50:25;;;;;;;23.85;8.60;;;;;;;-5.41;100.00;99744.97;4485901;31;20104;-73
2024/01/11 03:52:52;;;;;;;17.15;7.25;;;;;;;-5.46;100.00;99752.66;4485814;31;20100;-73
2024/01/11 03:55:20;;;;;;;19.75;9.63;;;;;;;-5.47;100.00;99739.91;4485651;31;20097;-73
2024/01/11 03:57:47;;;;;;;22.62;9.32;;;;;;;-5.47;100.00;99745.00;4485643;31;20428;-73
2024/01/11 04:00:16;;;;;;;24.55;9.00;;;;;;;-5.58;100.00;99732.34;4485618;31;20100;-73
2024/01/11 04:02:44;;;;;;;25.02;8.10;;;;;;;-5.61;100.00;99737.47;4485625;32;20100;-73
2024/01/11 04:05:11;;;;;;;16.10;8.05;;;;;;;-5.60;100.00;99729.81;4485707;31;20085;-73
2024/01/11 04:07:39;;;;;;;14.48;7.75;;;;;;;-5.61;100.00;99717.88;4485675;31;20093;-73
2024/01/11 04:10:06;;;;;;;15.75;7.22;;;;;;;-5.62;100.00;99726.41;4485492;31;20575;-73
2024/01/11 04:12:35;;;;;;;17.85;8.23;;;;;;;-5.55;100.00;99717.84;4485627;31;20168;-73
2024/01/11 04:15:03;;;;;;;21.48;8.50;;;;;;;-5.58;100.00;99725.53;4485420;31;20454;-73
2024/01/11 04:17:31;;;;;;;19.80;8.85;;;;;;;-5.60;100.00;99731.47;4486278;31;20139;-73
2024/01/11 04:20:00;;;;;;;23.15;8.80;;;;;;;-5.57;100.00;99736.56;4501184;31;20134;-73
2024/01/11 04:22:28;;;;;;;21.23;10.38;;;;;;;-5.52;100.00;99740.78;4501284;31;20122;-73
2024/01/11 04:24:56;;;;;;;23.42;9.20;;;;;;;-5.46;100.00;99737.34;4501150;31;20114;-73
2024/01/11 04:27:23;;;;;;;24.00;9.15;;;;;;;-5.44;100.00;99735.59;4501208;31;20095;-73
2024/01/11 04:29:52;;;;;;;21.23;10.00;;;;;;;-5.39;100.00;99735.56;4495557;31;20164;-73
2024/01/11 04:32:20;;;;;;;21.87;9.27;;;;;;;-5.40;100.00;99732.19;4485488;31;20601;-73
2024/01/11 04:34:48;;;;;;;24.63;10.25;;;;;;;-5.37;100.00;99736.44;4485085;31;20486;-73
2024/01/11 04:37:18;;;;;;;25.98;8.63;;;;;;;-5.35;100.00;99727.03;4485628;31;20108;-73
2024/01/11 04:39:45;;;;;;;25.02;9.82;;;;;;;-5.38;100.00;99737.28;4485114;31;20157;-73
2024/01/11 04:42:14;;;;;;;28.12;11.18;;;;;;;-5.41;100.00;99738.12;4485356;31;20088;-73
2024/01/11 04:44:41;;;;;;;22.62;9.07;;;;;;;-5.39;100.00;99740.69;4484897;31;20101;-73
2024/01/11 04:47:09;;;;;;;28.10;9.45;;;;;;;-5.35;100.00;99744.91;4485223;32;20986;-73
2024/01/11 04:49:39;;;;;;;24.02;9.63;;;;;;;-5.31;100.00;99736.38;4485454;31;20106;-73
2024/01/11 04:52:08;;;;;;;23.05;8.65;;;;;;;-5.32;100.00;99734.66;4485339;31;20115;-73
2024/01/11 04:54:35;;;;;;;23.05;9.40;;;;;;;-5.30;100.00;99738.03;4485307;31;20446;-73
2024/01/11 04:57:05;;;;;;;26.85;9.95;;;;;;;-5.31;100.00;99741.47;4485273;31;20140;-73
2024/01/11 04:59:32;;;;;;;22.77;9.27;;;;;;;-5.30;100.00;99734.66;4485264;31;20161;-73
2024/01/11 05:02:00;;;;;;;23.10;8.98;;;;;;;-5.32;100.00;99734.66;4485352;31;20084;-73
2024/01/11 05:04:27;;;;;;;25.37;10.32;;;;;;;-5.38;100.00;99737.28;4484006;32;20088;-73
2024/01/11 05:06:56;;;;;;;25.35;10.10;;;;;;;-5.40;100.00;99731.34;4485259;31;20100;-73
2024/01/11 05:09:23;;;;;;;24.42;9.27;;;;;;;-5.37;100.00;99728.75;4485218;31;20100;-73
2024/01/11 05:11:50;;;;;;;22.15;9.32;;;;;;;-5.45;100.00;99730.53;4485252;32;20152;-74
2024/01/11 05:14:18;;;;;;;25.77;8.55;;;;;;;-5.44;100.00;99733.06;4485224;31;20111;-74
2024/01/11 05:16:45;;;;;;;24.45;9.40;;;;;;;-5.48;100.00;99733.97;4485212;31;20446;-74
2024/01/11 05:19:13;;;;;;;16.37;7.78;;;;;;;-5.54;100.00;99728.88;4497122;31;20108;-75
2024/01/11 05:21:40;;;;;;;19.55;7.15;;;;;;;-5.54;100.00;99719.53;4500898;31;20426;-74
2024/01/11 05:24:08;;;;;;;22.13;8.30;;;;;;;-5.59;100.00;99723.81;4500828;31;20469;-74
2024/01/11 05:26:38;;;;;;;21.15;9.27;;;;;;;-5.60;100.00;99728.94;4501111;31;20138;-75
2024/01/11 05:29:06;;;;;;;23.75;9.77;;;;;;;-5.78;100.00;99729.94;4500444;31;20100;-74
2024/01/11 05:31:33;;;;;;;22.90;8.18;;;;;;;-5.73;100.00;99723.09;4485066;31;20097;-74
2024/01/11 05:34:02;;;;;;;20.92;8.65;;;;;;;-5.81;100.00;99729.94;4485086;31;20148;-73
2024/01/11 05:36:30;;;;;;;22.42;8.32;;;;;;;-5.89;100.00;99727.44;4484811;31;20609;-73
2024/01/11 05:38:57;;;;;;;19.95;8.75;;;;;;;-5.92;100.00;99724.91;4485134;31;20145;-75
2024/01/11 05:41:24;;;;;;;19.08;8.40;;;;;;;-5.93;100.00;99738.56;4484970;31;20100;-75
2024/01/11 05:43:51;;;;;;;20.50;8.88;;;;;;;-5.89;100.00;99741.06;4484997;31;20104;-78
2024/01/11 05:46:18;;;;;;;21.15;8.75;;;;;;;-5.83;100.00;99736.78;4484718;31;20085;-76
2024/01/11 05:48:46;;;;;;;17.25;7.60;;;;;;;-5.77;100.00;99740.16;4484882;31;20116;-75
2024/01/11 05:51:16;;;;;;;28.92;8.88;;;;;;;-5.79;100.00;99735.91;4483502;32;20116;-74
2024/01/11 05:53:43;;;;;;;25.55;9.55;;;;;;;-5.68;100.00;99738.38;4495324;31;20390;-74
2024/01/11 05:56:10;;;;;;;27.23;11.43;;;;;;;-5.56;100.00;99726.34;4500665;31;20114;-73
2024/01/11 05:58:39;;;;;;;16.90;8.13;;;;;;;-5.58;100.00;99722.12;4499790;31;20100;-74
2024/01/11 06:01:07;;;;;;;23.00;9.10;;;;;;;-5.53;100.00;99723.78;4492404;31;20104;-75
2024/01/11 06:03:36;;;;;;;23.17;10.45;;;;;;;-5.50;100.00;99724.63;4493038;31;20105;-74
2024/01/11 06:06:05;;;;;;;24.23;10.48;;;;;;;-5.48;100.00;99735.66;4490545;31;20138;-73
2024/01/11 06:08:32;;;;;;;24.42;9.60;;;;;;;-5.45;100.00;99739.03;4490145;31;20130;-74
2024/01/11 06:11:00;;;;;;;21.20;8.65;;;;;;;-5.46;100.00;99739.06;4495779;31;20473;-75
2024/01/11 06:13:27;;;;;;;26.92;10.18;;;;;;;-5.49;100.00;99731.44;4487944;31;20139;-74
2024/01/11 06:15:55;;;;;;;23.10;9.90;;;;;;;-5.52;100.00;99730.56;4498229;31;20108;-73
2024/01/11 06:18:22;;;;;;;29.50;10.15;;;;;;;-5.61;100.00;99729.81;4499236;31;20115;-73
2024/01/11 06:20:51;;;;;;;26.00;11.60;;;;;;;-5.68;100.00;99734.09;4498508;31;20163;-74
2024/01/11 06:23:19;;;;;;;26.58;10.18;;;;;;;-5.71;100.00;99741.78;4494777;31;20168;-74
2024/01/11 06:25:47;;;;;;;33.92;10.48;;;;;;;-5.77;100.00;99732.50;4495555;31;20100;-75
2024/01/11 06:28:14;;;;;;;25.10;9.82;;;;;;;-5.83;100.00;99729.13;4496458;31;20152;-74
2024/01/11 06:30:43;;;;;;;28.33;10.75;;;;;;;-5.89;100.00;99723.22;4495334;31;20112;-74
2024/01/11 06:33:10;;;;;;;28.77;10.40;;;;;;;-5.93;100.00;99715.59;4492269;31;20110;-73
2024/01/11 06:35:37;;;;;;;25.88;11.68;;;;;;;-5.97;100.00;99724.97;4492943;31;20137;-73
2024/01/11 06:38:05;;;;;;;23.20;10.65;;;;;;;-6.01;100.00;99727.56;4493516;31;20160;-73
2024/01/11 06:40:33;;;;;;;30.65;11.27;;;;;;;-5.99;100.00;99715.66;4496041;31;20129;-73
2024/01/11 06:43:00;;;;;;;26.23;10.38;;;;;;;-5.97;100.00;99719.87;4484970;31;20126;-74
2024/01/11 06:45:28;;;;;;;24.90;10.32;;;;;;;-5.95;100.00;99720.72;4485035;31;20088;-73
2024/01/11 06:47:56;;;;;;;27.42;10.70;;;;;;;-5.96;100.00;99715.62;4492545;31;20512;-74
2024/01/11 06:50:24;;;;;;;29.65;11.50;;;;;;;-6.06;100.00;99714.84;4498252;31;20091;-74
2024/01/11 06:52:51;;;;;;;23.58;10.32;;;;;;;-5.96;100.00;99710.50;4497203;31;20149;-74
2024/01/11 06:55:19;;;;;;;22.05;11.02;;;;;;;-5.99;100.00;99711.41;4489473;31;20108;-75
2024/01/11 06:57:48;;;;;;;17.77;8.65;;;;;;;-5.95;100.00;99710.50;4482412;31;20105;-75
2024/01/11 07:00:15;;;;;;;18.25;8.20;;;;;;;-5.89;100.00;99710.44;4498573;31;20092;-79
2024/01/11 07:02:42;;;;;;;25.37;11.73;;;;;;;-5.74;100.00;99711.19;4495930;31;20119;-76
2024/01/11 07:05:10;;;;;;;19.83;10.02;;;;;;;-5.61;100.00;99711.94;4489749;31;20091;-77
2024/01/11 07:07:39;;;;;;;23.70;9.20;;;;;;;-5.53;100.00;99716.12;4498669;31;20130;-76
2024/01/11 07:10:11;;;;;;;31.08;10.82;;;;;;;-5.44;100.00;99697.31;4498407;31;20802;-79
2024/01/11 07:12:41;;;;;;;23.45;11.50;;;;;;;-5.31;100.00;99713.38;4494885;31;20145;-79
2024/01/11 07:15:09;;;;;;;23.50;9.85;;;;;;;-5.21;100.00;99716.69;4495099;31;20095;-77
2024/01/11 07:17:35;;;;;;;18.65;8.25;;;;;;;-5.10;100.00;99706.34;4491304;31;20092;-75
2024/01/11 07:20:04;;;;;;;23.30;9.63;;;;;;;-4.96;100.00;99714.72;4496310;31;20152;-75
2024/01/11 07:22:34;;;;;;;19.30;7.47;;;;;;;-4.93;100.00;99712.13;4492408;31;20191;-75
2024/01/11 07:25:07;;;;;;;21.33;9.23;;;;;;;-4.87;100.00;99706.97;4490603;31;20112;-75
2024/01/11 07:27:35;;;;;;;25.65;11.45;;;;;;;-4.87;100.00;99709.53;4493826;31;20100;-75
2024/01/11 07:30:03;;;;;;;25.67;9.30;;;;;;;-4.77;100.00;99699.19;4490547;31;20127;-76
2024/01/11 07:32:30;;;;;;;29.65;10.02;;;;;;;-4.68;100.00;99709.28;4495405;31;20104;-77
2024/01/11 07:34:57;;;;;;;29.60;10.93;;;;;;;-4.64;100.00;99713.50;4491802;31;20127;-76
2024/01/11 07:37:27;;;;;;;22.37;10.32;;;;;;;-4.61;100.00;99717.75;4495681;31;20104;-76
2024/01/11 07:39:55;;;;;;;25.90;11.25;;;;;;;-4.55;100.00;99718.50;4488705;31;20120;-75
2024/01/11 07:42:22;;;;;;;35.67;11.43;;;;;;;-4.46;100.00;99713.28;4489399;31;20095;-74
2024/01/11 07:44:50;;;;;;;28.00;11.18;;;;;;;-4.46;100.00;99712.44;4496831;31;20551;-76
2024/01/11 07:47:17;;;;;;;26.87;11.32;;;;;;;-4.40;100.00;99714.94;4488298;31;20112;-73
2024/01/11 07:49:46;;;;;;;31.17;11.88;;;;;;;-4.46;100.00;99710.72;4497457;31;20114;-72
2024/01/11 07:52:14;;;;;;;31.30;12.40;;;;;;;-4.41;100.00;99710.66;4497704;31;20119;-72
2024/01/11 07:54:44;;;;;;;24.95;11.43;;;;;;;-4.37;100.00;99708.94;4486343;31;20092;-73
2024/01/11 07:57:11;;;;;;;28.62;12.80;;;;;;;-4.37;100.00;99714.03;4486380;31;20126;-74
2024/01/11 07:59:38;;;;;;;33.90;12.45;;;;;;;-4.32;100.00;99704.59;4492006;31;20096;-73
2024/01/11 08:02:06;;;;;;;27.23;11.38;;;;;;;-4.33;100.00;99697.78;4493760;31;20118;-71
2024/01/11 08:04:34;;;;;;;35.90;12.60;;;;;;;-4.24;100.00;99695.09;4497690;31;20118;-72
2024/01/11 08:07:01;;;;;;;29.17;12.55;;;;;;;-4.32;100.00;99702.03;4497271;31;20118;-74
2024/01/11 08:09:29;;;;;;;30.00;9.40;;;;;;;-4.16;100.00;99707.78;4498308;31;20842;-71
2024/01/11 08:11:57;;;;;;;21.65;9.63;;;;;;;-4.16;100.00;99693.28;4496555;31;20119;-73
2024/01/11 08:14:24;;;;;;;26.17;11.05;;;;;;;-4.08;100.00;99693.16;4494840;31;20091;-73
2024/01/11 08:16:53;;;;;;;23.25;10.27;;;;;;;-4.03;100.00;99699.03;4493653;31;20095;-72
2024/01/11 08:19:21;;;;;;;30.23;12.05;;;;;;;-3.99;100.00;99689.63;4496659;31;20156;-73
2024/01/11 08:21:52;;;;;;;22.90;9.98;;;;;;;-3.93;100.00;99686.97;4489821;31;20092;-72
2024/01/11 08:24:20;;;;;;;35.67;12.45;;;;;;;-3.84;100.00;99681.72;4497543;31;20129;-71
2024/01/11 08:26:48;;;;;;;29.40;11.25;;;;;;;-3.75;100.00;99686.69;4494886;31;20458;-72
2024/01/11 08:29:19;;;;;;;17.35;8.20;;;;;;;-3.60;100.00;99679.63;4486245;31;20118;-73
2024/01/11 08:31:47;;;;;;;31.17;12.25;;;;;;;-3.51;100.00;99674.34;4489029;31;20100;-73
2024/01/11 08:34:15;;;;;;;32.58;11.60;;;;;;;-3.60;100.00;99670.22;4486004;31;20152;-72
2024/01/11 08:36:43;;;;;;;25.40;11.12;;;;;;;-3.62;100.00;99666.00;4491716;31;20117;-75
2024/01/11 08:39:12;;;;;;;28.42;11.93;;;;;;;-3.54;100.00;99669.28;4495693;31;20167;-73
2024/01/11 08:41:40;;;;;;;28.80;11.95;;;;;;;-3.49;100.00;99666.63;4494584;31;20108;-72
2024/01/11 08:44:12;;;;;;;31.75;11.65;;;;;;;-3.55;100.00;99672.72;4495039;31;20430;-72
2024/01/11 08:46:40;;;;;;;35.03;12.15;;;;;;;-3.58;100.00;99672.75;4488047;31;20800;-72
2024/01/11 08:49:08;;;;;;;26.87;12.18;;;;;;;-3.51;100.00;99668.38;4489357;31;20153;-72
2024/01/11 08:51:36;;;;;;;24.17;10.70;;;;;;;-3.58;100.00;99665.06;4489850;31;20180;-72
2024/01/11 08:54:06;;;;;;;24.25;10.80;;;;;;;-3.51;100.00;99668.38;4489734;31;20111;-72
2024/01/11 08:56:34;;;;;;;22.95;10.75;;;;;;;-3.66;100.00;99669.50;4497216;31;20451;-72
2024/01/11 08:59:01;;;;;;;34.30;12.95;;;;;;;-3.66;100.00;99672.06;4497798;31;20139;-71
2024/01/11 09:01:29;;;;;;;24.40;10.18;;;;;;;-3.60;100.00;99665.09;4489143;31;20602;-71
2024/01/11 09:03:57;;;;;;;28.90;12.73;;;;;;;-3.64;100.00;99667.75;4489687;31;20537;-73
2024/01/11 09:06:25;;;;;;;30.02;11.68;;;;;;;-3.56;100.00;99668.44;4498364;31;20092;-74
2024/01/11 09:08:54;;;;;;;28.00;11.55;;;;;;;-3.46;100.00;99672.53;4485560;31;20115;-75
2024/01/11 09:11:21;;;;;;;33.25;13.43;;;;;;;-3.36;100.00;99667.25;4498777;31;20527;-72
2024/01/11 09:13:48;;;;;;;24.48;11.57;;;;;;;-3.36;100.00;99663.00;4493989;31;20108;-74
2024/01/11 09:16:16;;;;;;;26.98;10.77;;;;;;;-3.27;100.00;99664.53;4490277;31;20105;-75
2024/01/11 09:18:44;;;;;;;21.73;9.18;;;;;;;-3.27;100.00;99661.97;4484721;31;20084;-74
2024/01/11 09:21:12;;;;;;;33.58;11.68;;;;;;;-3.29;100.00;99658.59;4495970;31;20144;-75
2024/01/11 09:23:39;;;;;;;28.08;10.90;;;;;;;-3.23;100.00;99663.59;4492433;31;20099;-74
2024/01/11 09:26:06;;;;;;;40.97;12.35;;;;;;;-3.16;100.00;99648.94;4494620;31;20560;-73
2024/01/11 09:28:36;;;;;;;24.65;10.73;;;;;;;-3.22;100.00;99652.50;4496040;31;20799;-73
2024/01/11 09:31:05;;;;;;;28.70;10.23;;;;;;;-3.23;100.00;99648.22;4492038;31;20096;-75
2024/01/11 09:33:34;;;;;;;32.15;13.18;;;;;;;-3.16;100.00;99649.81;4495820;31;20096;-76
2024/01/11 09:36:02;;;;;;;24.00;9.60;;;;;;;-3.12;100.00;99645.47;4494505;31;20107;-74
2024/01/11 09:38:33;;;;;;;22.87;10.43;;;;;;;-3.08;100.00;99645.38;4489267;31;20096;-74
2024/01/11 09:41:08;;;;;;;22.95;10.48;;;;;;;-2.88;100.00;99636.44;4490588;31;20899;-75
2024/01/11 09:43:43;;;;;;;31.85;13.02;;;;;;;-2.90;100.00;99627.94;4489078;31;20099;-74
2024/01/11 09:46:12;;;;;;;30.00;11.55;;;;;;;-2.84;100.00;99620.13;4494229;31;20145;-75
2024/01/11 09:48:44;;;;;;;31.98;11.77;;;;;;;-2.69;100.00;99614.66;4490988;31;20100;-73
2024/01/11 09:51:11;;;;;;;31.95;12.07;;;;;;;-2.70;100.00;99605.28;4490202;31;20088;-74
2024/01/11 09:53:40;;;;;;;24.92;11.60;;;;;;;-2.71;100.00;99593.34;4488601;31;20952;-73
2024/01/11 09:56:16;;;;;;;24.55;11.48;;;;;;;-2.64;100.00;99583.78;4489797;31;20097;-73
2024/01/11 09:58:50;;;;;;;32.38;13.23;;;;;;;-2.65;100.00;99578.69;4488333;31;20600;-73
2024/01/11 10:01:17;;;;;;;32.63;12.37;;;;;;;-2.56;100.00;99573.34;4493402;31;20453;-73
2024/01/11 10:03:47;;;;;;;22.92;10.43;;;;;;;-2.57;100.00;99561.41;4494585;31;20112;-75
2024/01/11 10:06:15;;;;;;;31.45;10.30;;;;;;;-2.42;100.00;99562.75;4486352;31;20440;-74
2024/01/11 10:08:43;;;;;;;22.42;9.95;;;;;;;-2.44;100.00;99557.66;4484621;31;20470;-73
2024/01/11 10:11:10;;;;;;;23.08;9.65;;;;;;;-2.35;100.00;99554.06;4494922;31;20089;-72
2024/01/11 10:13:38;;;;;;;35.70;12.43;;;;;;;-2.35;100.00;99560.03;4497221;31;20122;-74
2024/01/11 10:16:13;;;;;;;23.98;8.88;;;;;;;-2.19;100.00;99551.97;4497442;31;20104;-73
2024/01/11 10:18:41;;;;;;;23.08;10.15;;;;;;;-1.99;100.00;99554.88;4494087;31;20092;-73
2024/01/11 10:21:11;;;;;;;28.33;11.05;;;;;;;-2.04;100.00;99550.75;4486111;31;20156;-73
2024/01/11 10:23:39;;;;;;;18.45;7.90;;;;;;;-2.05;100.00;99552.47;4485888;31;20103;-72
2024/01/11 10:26:09;;;;;;;28.30;10.68;;;;;;;-2.01;100.00;99545.53;4494851;31;20437;-70
2024/01/11 10:28:37;;;;;;;20.95;9.82;;;;;;;-1.94;100.00;99533.38;4484184;31;20115;-71
2024/01/11 10:31:07;;;;;;;18.65;8.45;;;;;;;-1.90;100.00;99527.28;4496673;31;20137;-71
2024/01/11 10:33:35;;;;;;;14.95;6.37;;;;;;;-1.82;100.00;99522.78;4489304;31;20478;-71
2024/01/11 10:36:04;;;;;;;16.95;6.90;;;;;;;-1.64;100.00;99527.41;4488149;31;20131;-73
2024/01/11 10:38:38;;;;;;;20.50;7.85;;;;;;;-1.74;100.00;99527.72;4487354;31;20088;-73
2024/01/11 10:41:12;;;;;;;17.62;8.25;;;;;;;-1.73;100.00;99519.97;4489950;31;20104;-72
2024/01/11 10:43:42;;;;;;;14.98;7.22;;;;;;;-1.66;100.00;99518.91;4488979;31;20123;-73
2024/01/11 10:46:11;;;;;;;16.73;7.68;;;;;;;-1.63;99.61;99526.53;4495530;31;20099;-72
2024/01/11 10:48:41;;;;;;;20.85;8.18;;;;;;;-1.58;100.00;99523.00;4489446;31;20126;-74
2024/01/11 10:51:12;;;;;;;22.10;9.38;;;;;;;-1.50;99.84;99521.94;4495155;31;20136;-75
2024/01/11 10:53:48;;;;;;;27.08;10.15;;;;;;;-1.47;98.43;99520.97;4485928;31;20666;-74
2024/01/11 10:56:16;;;;;;;22.40;9.52;;;;;;;-1.56;100.00;99506.69;4485555;31;20096;-74
2024/01/11 10:58:46;;;;;;;21.23;9.35;;;;;;;-1.49;100.00;99513.31;4481927;31;20528;-72
2024/01/11 11:01:14;;;;;;;22.17;10.10;;;;;;;-1.41;100.00;99518.22;4484754;31;20096;-73
2024/01/11 11:03:48;;;;;;;21.95;8.40;;;;;;;-1.47;100.00;99514.13;4486739;31;20483;-73
2024/01/11 11:06:18;;;;;;;22.75;10.50;;;;;;;-1.47;100.00;99506.41;4490329;31;20096;-72
2024/01/11 11:08:47;;;;;;;23.15;10.40;;;;;;;-1.39;100.00;99501.06;4497303;31;20088;-71
2024/01/11 11:11:15;;;;;;;23.85;9.95;;;;;;;-1.39;100.00;99497.63;4490087;31;20092;-72
2024/01/11 11:13:47;;;;;;;23.35;11.07;;;;;;;-1.27;100.00;99487.03;4482770;31;20109;-72
2024/01/11 11:16:15;;;;;;;14.85;8.05;;;;;;;-1.28;98.53;99472.47;4484955;31;20096;-72
2024/01/11 11:18:43;;;;;;;30.05;11.52;;;;;;;-1.11;100.00;99471.97;4486259;31;20100;-73